sensor_id;sensor_type;location;lat;lon;timestamp;pressure;altitude;pressure_sealevel;temperature;humidity
67377;BME280;54261;46.086;6.588;2023-05-09T00:02:04;92772.69;;;14.89;41.88
67377;BME280;54261;46.086;6.588;2023-05-09T00:07:06;92788.56;;;14.78;41.30
67377;BME280;54261;46.086;6.588;2023-05-09T00:12:08;92787.78;;;14.77;42.25
67377;BME280;54261;46.086;6.588;2023-05-09T00:17:10;92781.34;;;14.57;42.61
67377;BME280;54261;46.086;6.588;2023-05-09T00:22:15;92789.00;;;14.67;43.06
67377;BME280;54261;46.086;6.588;2023-05-09T00:27:18;92780.22;;;14.71;43.38
67377;BME280;54261;46.086;6.588;2023-05-09T00:32:20;92780.13;;;14.92;42.33
67377;BME280;54261;46.086;6.588;2023-05-09T00:37:22;92770.56;;;14.69;42.13
67377;BME280;54261;46.086;6.588;2023-05-09T00:42:24;92775.28;;;14.14;42.99
67377;BME280;54261;46.086;6.588;2023-05-09T00:47:29;92780.38;;;13.73;44.03
67377;BME280;54261;46.086;6.588;2023-05-09T00:52:32;92765.78;;;13.74;44.46
67377;BME280;54261;46.086;6.588;2023-05-09T00:57:34;92761.69;;;13.89;44.21
67377;BME280;54261;46.086;6.588;2023-05-09T01:02:40;92752.09;;;13.37;45.11
67377;BME280;54261;46.086;6.588;2023-05-09T01:08:13;92752.75;;;13.76;45.13
67377;BME280;54261;46.086;6.588;2023-05-09T01:13:27;92750.72;;;14.07;44.08
67377;BME280;54261;46.086;6.588;2023-05-09T01:24:20;92740.78;;;14.45;42.91
67377;BME280;54261;46.086;6.588;2023-05-09T01:29:46;92734.78;;;14.14;43.29
67377;BME280;54261;46.086;6.588;2023-05-09T01:34:51;92735.53;;;14.48;42.96
67377;BME280;54261;46.086;6.588;2023-05-09T01:39:55;92729.47;;;14.51;42.19
67377;BME280;54261;46.086;6.588;2023-05-09T01:44:59;92717.53;;;14.40;42.15
67377;BME280;54261;46.086;6.588;2023-05-09T01:50:02;92718.03;;;14.08;42.45
67377;BME280;54261;46.086;6.588;2023-05-09T01:55:06;92716.81;;;14.18;42.87
67377;BME280;54261;46.086;6.588;2023-05-09T02:00:10;92687.44;;;14.17;42.71
67377;BME280;54261;46.086;6.588;2023-05-09T02:05:14;92712.22;;;14.19;42.65
67377;BME280;54261;46.086;6.588;2023-05-09T02:10:18;92725.13;;;14.13;42.81
67377;BME280;54261;46.086;6.588;2023-05-09T02:15:22;92712.22;;;13.64;42.45
67377;BME280;54261;46.086;6.588;2023-05-09T02:20:24;92720.38;;;14.10;42.97
67377;BME280;54261;46.086;6.588;2023-05-09T02:25:26;92705.41;;;14.00;42.85
67377;BME280;54261;46.086;6.588;2023-05-09T02:30:34;92709.81;;;13.71;43.19
67377;BME280;54261;46.086;6.588;2023-05-09T02:35:39;92722.97;;;14.06;43.23
67377;BME280;54261;46.086;6.588;2023-05-09T02:40:42;92721.06;;;14.07;43.09
67377;BME280;54261;46.086;6.588;2023-05-09T02:45:45;92723.56;;;14.12;42.94
67377;BME280;54261;46.086;6.588;2023-05-09T02:50:47;92726.34;;;14.16;43.04
67377;BME280;54261;46.086;6.588;2023-05-09T02:55:48;92723.78;;;14.19;42.84
67377;BME280;54261;46.086;6.588;2023-05-09T03:00:51;92720.31;;;14.31;42.55
67377;BME280;54261;46.086;6.588;2023-05-09T03:05:53;92718.41;;;14.32;42.40
67377;BME280;54261;46.086;6.588;2023-05-09T03:10:55;92735.88;;;14.01;42.57
67377;BME280;54261;46.086;6.588;2023-05-09T03:15:57;92704.91;;;13.85;42.89
67377;BME280;54261;46.086;6.588;2023-05-09T03:20:59;92716.38;;;13.82;43.16
67377;BME280;54261;46.086;6.588;2023-05-09T03:26:02;92713.94;;;14.02;43.03
67377;BME280;54261;46.086;6.588;2023-05-09T03:31:05;92700.84;;;14.13;42.93
67377;BME280;54261;46.086;6.588;2023-05-09T03:36:07;92700.72;;;14.09;42.29
67377;BME280;54261;46.086;6.588;2023-05-09T03:41:12;92703.88;;;14.11;42.45
67377;BME280;54261;46.086;6.588;2023-05-09T03:46:14;92706.97;;;14.01;42.12
67377;BME280;54261;46.086;6.588;2023-05-09T03:51:19;92710.81;;;13.66;42.67
67377;BME280;54261;46.086;6.588;2023-05-09T03:56:22;92710.31;;;13.85;42.62
67377;BME280;54261;46.086;6.588;2023-05-09T04:01:26;92704.00;;;13.81;42.39
67377;BME280;54261;46.086;6.588;2023-05-09T04:06:30;92690.84;;;13.80;42.30
67377;BME280;54261;46.086;6.588;2023-05-09T04:11:34;92716.00;;;14.05;42.24
67377;BME280;54261;46.086;6.588;2023-05-09T04:16:42;92714.88;;;14.06;42.26
67377;BME280;54261;46.086;6.588;2023-05-09T04:21:44;92705.00;;;14.10;42.53
67377;BME280;54261;46.086;6.588;2023-05-09T04:26:47;92691.25;;;14.03;42.64
67377;BME280;54261;46.086;6.588;2023-05-09T04:31:53;92703.91;;;14.36;42.79
67377;BME280;54261;46.086;6.588;2023-05-09T04:36:58;92702.00;;;14.49;42.85
67377;BME280;54261;46.086;6.588;2023-05-09T04:42:01;92695.13;;;14.39;42.76
67377;BME280;54261;46.086;6.588;2023-05-09T04:47:03;92696.41;;;14.54;42.98
67377;BME280;54261;46.086;6.588;2023-05-09T04:52:05;92688.41;;;14.58;43.07
67377;BME280;54261;46.086;6.588;2023-05-09T04:57:08;92675.81;;;14.62;43.19
67377;BME280;54261;46.086;6.588;2023-05-09T05:02:21;92677.16;;;14.81;43.36
67377;BME280;54261;46.086;6.588;2023-05-09T05:07:26;92640.16;;;14.57;43.22
67377;BME280;54261;46.086;6.588;2023-05-09T05:12:28;92675.88;;;14.91;43.60
67377;BME280;54261;46.086;6.588;2023-05-09T05:17:30;92672.41;;;15.03;43.31
67377;BME280;54261;46.086;6.588;2023-05-09T05:22:34;92669.50;;;14.71;43.03
67377;BME280;54261;46.086;6.588;2023-05-09T05:27:37;92666.59;;;14.63;43.63
67377;BME280;54261;46.086;6.588;2023-05-09T05:32:40;92681.97;;;15.00;43.48
67377;BME280;54261;46.086;6.588;2023-05-09T05:37:42;92678.84;;;14.86;43.46
67377;BME280;54261;46.086;6.588;2023-05-09T05:42:45;92684.31;;;15.14;43.74
67377;BME280;54261;46.086;6.588;2023-05-09T05:47:47;92676.09;;;15.10;43.80
67377;BME280;54261;46.086;6.588;2023-05-09T05:52:50;92671.84;;;14.97;43.76
67377;BME280;54261;46.086;6.588;2023-05-09T05:57:53;92638.63;;;14.96;43.49
67377;BME280;54261;46.086;6.588;2023-05-09T06:02:55;92652.13;;;14.96;44.38
67377;BME280;54261;46.086;6.588;2023-05-09T06:08:06;92645.72;;;15.42;43.83
67377;BME280;54261;46.086;6.588;2023-05-09T06:13:08;92635.09;;;15.78;43.96
67377;BME280;54261;46.086;6.588;2023-05-09T06:18:13;92634.28;;;15.20;44.35
67377;BME280;54261;46.086;6.588;2023-05-09T06:23:15;92639.25;;;15.18;45.05
67377;BME280;54261;46.086;6.588;2023-05-09T06:28:22;92632.97;;;15.14;45.22
67377;BME280;54261;46.086;6.588;2023-05-09T06:33:24;92629.50;;;15.42;44.36
67377;BME280;54261;46.086;6.588;2023-05-09T06:38:26;92626.06;;;15.58;44.78
67377;BME280;54261;46.086;6.588;2023-05-09T06:43:28;92615.59;;;14.62;45.87
67377;BME280;54261;46.086;6.588;2023-05-09T06:48:29;92572.78;;;14.10;47.41
67377;BME280;54261;46.086;6.588;2023-05-09T06:53:31;92586.16;;;15.26;45.71
67377;BME280;54261;46.086;6.588;2023-05-09T06:58:33;92604.44;;;15.90;44.74
67377;BME280;54261;46.086;6.588;2023-05-09T07:03:35;92581.34;;;15.32;44.74
67377;BME280;54261;46.086;6.588;2023-05-09T07:08:37;92554.22;;;13.25;49.02
67377;BME280;54261;46.086;6.588;2023-05-09T07:13:39;92569.28;;;14.22;47.75
67377;BME280;54261;46.086;6.588;2023-05-09T07:18:41;92549.78;;;13.08;49.71
67377;BME280;54261;46.086;6.588;2023-05-09T07:23:42;92547.03;;;10.45;56.71
67377;BME280;54261;46.086;6.588;2023-05-09T07:28:44;92562.63;;;10.87;57.93
67377;BME280;54261;46.086;6.588;2023-05-09T07:33:46;92554.88;;;11.77;56.28
67377;BME280;54261;46.086;6.588;2023-05-09T07:38:48;92552.22;;;11.12;56.95
67377;BME280;54261;46.086;6.588;2023-05-09T07:43:56;92543.03;;;11.69;55.96
67377;BME280;54261;46.086;6.588;2023-05-09T07:48:58;92536.25;;;10.98;56.35
67377;BME280;54261;46.086;6.588;2023-05-09T07:53:59;92531.53;;;10.33;59.88
67377;BME280;54261;46.086;6.588;2023-05-09T07:59:01;92525.25;;;10.73;59.32
67377;BME280;54261;46.086;6.588;2023-05-09T08:04:04;92521.53;;;9.98;61.13
67377;BME280;54261;46.086;6.588;2023-05-09T08:09:07;92493.72;;;11.26;56.95
67377;BME280;54261;46.086;6.588;2023-05-09T08:14:09;92503.09;;;11.89;58.12
67377;BME280;54261;46.086;6.588;2023-05-09T08:19:11;92499.59;;;11.20;56.75
67377;BME280;54261;46.086;6.588;2023-05-09T08:24:13;92475.47;;;11.02;58.06
67377;BME280;54261;46.086;6.588;2023-05-09T08:29:14;92486.25;;;13.20;53.26
67377;BME280;54261;46.086;6.588;2023-05-09T08:34:19;92481.03;;;14.64;49.79
67377;BME280;54261;46.086;6.588;2023-05-09T08:39:21;92478.34;;;12.26;53.34
67377;BME280;54261;46.086;6.588;2023-05-09T08:44:24;92465.81;;;13.06;55.25
67377;BME280;54261;46.086;6.588;2023-05-09T08:49:26;92461.97;;;10.45;58.28
67377;BME280;54261;46.086;6.588;2023-05-09T08:54:28;92467.91;;;10.78;58.39
67377;BME280;54261;46.086;6.588;2023-05-09T08:59:31;92461.03;;;11.24;58.25
67377;BME280;54261;46.086;6.588;2023-05-09T09:04:35;92455.84;;;11.10;56.07
67377;BME280;54261;46.086;6.588;2023-05-09T09:09:43;92460.16;;;9.79;60.84
67377;BME280;54261;46.086;6.588;2023-05-09T09:14:47;92453.63;;;11.21;55.05
67377;BME280;54261;46.086;6.588;2023-05-09T09:19:54;92446.25;;;12.97;54.10
67377;BME280;54261;46.086;6.588;2023-05-09T09:24:56;92433.84;;;13.29;50.09
67377;BME280;54261;46.086;6.588;2023-05-09T09:30:09;92437.78;;;14.48;48.75
67377;BME280;54261;46.086;6.588;2023-05-09T09:35:11;92414.66;;;15.72;46.16
67377;BME280;54261;46.086;6.588;2023-05-09T09:40:13;92413.16;;;16.65;43.88
67377;BME280;54261;46.086;6.588;2023-05-09T09:45:16;92410.84;;;13.69;47.60
67377;BME280;54261;46.086;6.588;2023-05-09T09:50:19;92407.47;;;13.35;50.04
67377;BME280;54261;46.086;6.588;2023-05-09T09:55:23;92404.22;;;14.77;46.19
67377;BME280;54261;46.086;6.588;2023-05-09T10:00:26;92391.63;;;15.14;44.82
67377;BME280;54261;46.086;6.588;2023-05-09T10:05:30;92393.19;;;16.54;43.39
67377;BME280;54261;46.086;6.588;2023-05-09T10:10:36;92375.00;;;15.44;44.99
67377;BME280;54261;46.086;6.588;2023-05-09T10:15:39;92362.81;;;15.70;45.02
67377;BME280;54261;46.086;6.588;2023-05-09T10:20:55;92360.00;;;16.18;44.14
67377;BME280;54261;46.086;6.588;2023-05-09T10:26:16;92352.59;;;16.15;44.29
67377;BME280;54261;46.086;6.588;2023-05-09T10:31:26;92341.59;;;16.07;43.99
67377;BME280;54261;46.086;6.588;2023-05-09T10:36:29;92341.06;;;13.55;50.50
67377;BME280;54261;46.086;6.588;2023-05-09T10:41:31;92336.94;;;12.96;52.06
67377;BME280;54261;46.086;6.588;2023-05-09T10:46:34;92325.75;;;11.29;55.35
67377;BME280;54261;46.086;6.588;2023-05-09T10:51:36;92314.19;;;12.13;54.86
67377;BME280;54261;46.086;6.588;2023-05-09T10:56:38;92301.94;;;14.31;49.12
67377;BME280;54261;46.086;6.588;2023-05-09T11:01:40;92306.00;;;15.50;46.79
67377;BME280;54261;46.086;6.588;2023-05-09T11:06:51;92310.31;;;16.92;42.96
67377;BME280;54261;46.086;6.588;2023-05-09T11:17:01;92284.97;;;12.95;52.64
67377;BME280;54261;46.086;6.588;2023-05-09T11:22:13;92295.00;;;14.30;50.16
67377;BME280;54261;46.086;6.588;2023-05-09T11:27:19;92284.97;;;12.95;54.08
67377;BME280;54261;46.086;6.588;2023-05-09T11:32:26;92285.38;;;14.17;50.02
67377;BME280;54261;46.086;6.588;2023-05-09T11:37:29;92279.47;;;16.34;47.27
67377;BME280;54261;46.086;6.588;2023-05-09T11:42:31;92223.53;;;13.79;49.18
67377;BME280;54261;46.086;6.588;2023-05-09T11:47:35;92281.69;;;15.18;47.96
67377;BME280;54261;46.086;6.588;2023-05-09T11:52:37;92288.53;;;14.63;48.05
67377;BME280;54261;46.086;6.588;2023-05-09T11:57:41;92281.56;;;14.18;50.52
67377;BME280;54261;46.086;6.588;2023-05-09T12:02:45;92257.66;;;15.29;47.99
67377;BME280;54261;46.086;6.588;2023-05-09T12:07:48;92279.69;;;16.69;44.97
67377;BME280;54261;46.086;6.588;2023-05-09T12:12:51;92275.69;;;15.60;46.66
67377;BME280;54261;46.086;6.588;2023-05-09T12:18:04;92261.75;;;17.07;44.74
67377;BME280;54261;46.086;6.588;2023-05-09T12:23:08;92273.44;;;17.96;41.53
67377;BME280;54261;46.086;6.588;2023-05-09T12:28:10;92263.50;;;18.11;40.39
67377;BME280;54261;46.086;6.588;2023-05-09T12:33:12;92255.72;;;15.85;45.48
67377;BME280;54261;46.086;6.588;2023-05-09T12:38:20;92277.06;;;16.29;45.76
67377;BME280;54261;46.086;6.588;2023-05-09T12:43:22;92283.25;;;16.96;44.52
67377;BME280;54261;46.086;6.588;2023-05-09T12:48:24;92283.31;;;16.33;46.94
67377;BME280;54261;46.086;6.588;2023-05-09T12:53:27;92279.31;;;15.68;47.64
67377;BME280;54261;46.086;6.588;2023-05-09T12:58:32;92289.31;;;14.96;51.36
67377;BME280;54261;46.086;6.588;2023-05-09T13:03:34;92291.28;;;15.31;50.09
67377;BME280;54261;46.086;6.588;2023-05-09T13:08:39;92295.69;;;16.11;49.78
67377;BME280;54261;46.086;6.588;2023-05-09T13:13:41;92260.13;;;17.29;46.41
67377;BME280;54261;46.086;6.588;2023-05-09T13:18:43;92292.44;;;17.96;45.24
67377;BME280;54261;46.086;6.588;2023-05-09T13:23:45;92285.53;;;16.94;45.48
67377;BME280;54261;46.086;6.588;2023-05-09T13:28:47;92283.53;;;15.65;49.00
67377;BME280;54261;46.086;6.588;2023-05-09T13:33:49;92281.66;;;14.82;51.47
67377;BME280;54261;46.086;6.588;2023-05-09T13:38:52;92285.25;;;14.25;52.61
67377;BME280;54261;46.086;6.588;2023-05-09T13:43:54;92289.31;;;13.50;54.91
67377;BME280;54261;46.086;6.588;2023-05-09T13:48:56;92279.22;;;14.77;51.98
67377;BME280;54261;46.086;6.588;2023-05-09T13:53:58;92276.28;;;15.50;50.67
67377;BME280;54261;46.086;6.588;2023-05-09T13:59:00;92267.00;;;13.78;54.13
67377;BME280;54261;46.086;6.588;2023-05-09T14:04:01;92271.78;;;13.97;53.06
67377;BME280;54261;46.086;6.588;2023-05-09T14:09:03;92251.16;;;13.76;50.70
67377;BME280;54261;46.086;6.588;2023-05-09T14:14:05;92273.31;;;13.04;52.14
67377;BME280;54261;46.086;6.588;2023-05-09T14:19:07;92274.94;;;12.58;53.84
67377;BME280;54261;46.086;6.588;2023-05-09T14:24:10;92247.47;;;14.25;50.73
67377;BME280;54261;46.086;6.588;2023-05-09T14:29:16;92265.28;;;14.59;48.94
67377;BME280;54261;46.086;6.588;2023-05-09T14:34:18;92258.97;;;15.54;47.86
67377;BME280;54261;46.086;6.588;2023-05-09T14:39:20;92214.50;;;15.91;46.93
67377;BME280;54261;46.086;6.588;2023-05-09T14:44:21;92255.84;;;15.92;46.23
67377;BME280;54261;46.086;6.588;2023-05-09T14:49:25;92242.06;;;15.97;46.31
67377;BME280;54261;46.086;6.588;2023-05-09T14:54:27;92235.47;;;14.55;48.14
67377;BME280;54261;46.086;6.588;2023-05-09T14:59:29;92241.56;;;14.84;47.88
67377;BME280;54261;46.086;6.588;2023-05-09T15:04:31;92228.22;;;16.02;46.61
67377;BME280;54261;46.086;6.588;2023-05-09T15:09:33;92233.66;;;16.69;45.93
67377;BME280;54261;46.086;6.588;2023-05-09T15:14:35;92236.72;;;16.90;44.75
67377;BME280;54261;46.086;6.588;2023-05-09T15:19:37;92227.97;;;17.28;44.26
67377;BME280;54261;46.086;6.588;2023-05-09T15:24:39;92230.34;;;15.53;46.39
67377;BME280;54261;46.086;6.588;2023-05-09T15:29:44;92230.88;;;13.25;52.14
67377;BME280;54261;46.086;6.588;2023-05-09T15:34:47;92232.97;;;12.20;57.16
67377;BME280;54261;46.086;6.588;2023-05-09T15:39:49;92210.03;;;13.10;54.25
67377;BME280;54261;46.086;6.588;2023-05-09T15:44:50;92208.13;;;12.98;54.21
67377;BME280;54261;46.086;6.588;2023-05-09T15:49:53;92221.00;;;14.47;52.83
67377;BME280;54261;46.086;6.588;2023-05-09T15:54:55;92207.44;;;15.67;49.46
67377;BME280;54261;46.086;6.588;2023-05-09T15:59:57;92214.31;;;15.25;49.21
67377;BME280;54261;46.086;6.588;2023-05-09T16:04:59;92218.47;;;16.17;47.38
67377;BME280;54261;46.086;6.588;2023-05-09T16:10:00;92205.00;;;16.01;47.46
67377;BME280;54261;46.086;6.588;2023-05-09T16:15:03;92208.75;;;14.50;49.52
67377;BME280;54261;46.086;6.588;2023-05-09T16:20:07;92225.78;;;12.12;56.55
67377;BME280;54261;46.086;6.588;2023-05-09T16:25:09;92228.91;;;12.85;55.85
67377;BME280;54261;46.086;6.588;2023-05-09T16:30:12;92240.84;;;9.81;65.33
67377;BME280;54261;46.086;6.588;2023-05-09T16:35:14;92238.53;;;10.36;63.16
67377;BME280;54261;46.086;6.588;2023-05-09T16:40:17;92256.81;;;8.58;66.99
67377;BME280;54261;46.086;6.588;2023-05-09T16:45:19;92249.38;;;9.74;65.33
67377;BME280;54261;46.086;6.588;2023-05-09T16:50:21;92251.31;;;10.39;62.79
67377;BME280;54261;46.086;6.588;2023-05-09T16:55:23;92255.03;;;10.56;60.74
67377;BME280;54261;46.086;6.588;2023-05-09T17:00:25;92246.66;;;11.39;59.12
67377;BME280;54261;46.086;6.588;2023-05-09T17:05:27;92260.09;;;10.87;59.97
67377;BME280;54261;46.086;6.588;2023-05-09T17:10:29;92271.72;;;12.78;55.41
67377;BME280;54261;46.086;6.588;2023-05-09T17:15:31;92271.09;;;12.22;55.74
67377;BME280;54261;46.086;6.588;2023-05-09T17:20:34;92260.19;;;13.55;51.69
67377;BME280;54261;46.086;6.588;2023-05-09T17:25:36;92267.50;;;11.42;55.51
67377;BME280;54261;46.086;6.588;2023-05-09T17:30:38;92268.91;;;10.88;57.63
67377;BME280;54261;46.086;6.588;2023-05-09T17:35:40;92285.19;;;11.22;56.05
67377;BME280;54261;46.086;6.588;2023-05-09T17:40:42;92284.53;;;10.56;58.52
67377;BME280;54261;46.086;6.588;2023-05-09T17:45:44;92298.09;;;9.68;61.36
67377;BME280;54261;46.086;6.588;2023-05-09T17:50:47;92304.41;;;7.24;70.71
67377;BME280;54261;46.086;6.588;2023-05-09T17:55:49;92311.31;;;7.85;71.22
67377;BME280;54261;46.086;6.588;2023-05-09T18:00:51;92311.41;;;8.25;67.72
67377;BME280;54261;46.086;6.588;2023-05-09T18:05:55;92339.38;;;8.42;65.94
67377;BME280;54261;46.086;6.588;2023-05-09T18:10:57;92341.06;;;8.38;68.83
67377;BME280;54261;46.086;6.588;2023-05-09T18:16:00;92346.97;;;8.89;64.42
67377;BME280;54261;46.086;6.588;2023-05-09T18:21:02;92339.38;;;9.23;63.12
67377;BME280;54261;46.086;6.588;2023-05-09T18:26:06;92349.06;;;9.01;61.15
67377;BME280;54261;46.086;6.588;2023-05-09T18:31:09;92349.47;;;10.31;60.08
67377;BME280;54261;46.086;6.588;2023-05-09T18:36:13;92353.66;;;9.09;61.76
67377;BME280;54261;46.086;6.588;2023-05-09T18:41:15;92337.41;;;11.33;55.50
67377;BME280;54261;46.086;6.588;2023-05-09T18:46:17;92350.06;;;12.05;56.59
67377;BME280;54261;46.086;6.588;2023-05-09T18:51:21;92353.69;;;13.02;53.31
67377;BME280;54261;46.086;6.588;2023-05-09T18:56:24;92349.34;;;12.29;51.77
67377;BME280;54261;46.086;6.588;2023-05-09T19:01:26;92346.28;;;12.19;52.10
67377;BME280;54261;46.086;6.588;2023-05-09T19:06:28;92354.31;;;13.48;49.82
67377;BME280;54261;46.086;6.588;2023-05-09T19:11:30;92348.81;;;13.57;48.54
67377;BME280;54261;46.086;6.588;2023-05-09T19:16:32;92327.88;;;11.87;51.09
67377;BME280;54261;46.086;6.588;2023-05-09T19:21:34;92361.50;;;12.94;51.84
67377;BME280;54261;46.086;6.588;2023-05-09T19:26:36;92318.28;;;13.40;50.04
67377;BME280;54261;46.086;6.588;2023-05-09T19:31:38;92333.63;;;13.77;48.86
67377;BME280;54261;46.086;6.588;2023-05-09T19:36:40;92345.00;;;14.11;47.82
67377;BME280;54261;46.086;6.588;2023-05-09T19:41:42;92339.84;;;14.35;46.86
67377;BME280;54261;46.086;6.588;2023-05-09T19:46:44;92339.72;;;14.31;46.36
67377;BME280;54261;46.086;6.588;2023-05-09T19:51:46;92346.53;;;13.84;46.56
67377;BME280;54261;46.086;6.588;2023-05-09T19:56:48;92347.25;;;14.09;46.94
67377;BME280;54261;46.086;6.588;2023-05-09T20:01:50;92375.00;;;13.69;47.25
67377;BME280;54261;46.086;6.588;2023-05-09T20:06:52;92374.22;;;14.50;46.65
67377;BME280;54261;46.086;6.588;2023-05-09T20:11:54;92361.00;;;14.61;46.10
67377;BME280;54261;46.086;6.588;2023-05-09T20:16:56;92350.94;;;14.90;45.38
67377;BME280;54261;46.086;6.588;2023-05-09T20:21:59;92356.09;;;14.51;45.30
67377;BME280;54261;46.086;6.588;2023-05-09T20:27:02;92347.34;;;11.63;52.29
67377;BME280;54261;46.086;6.588;2023-05-09T20:32:03;92356.69;;;13.12;50.88
67377;BME280;54261;46.086;6.588;2023-05-09T20:37:06;92362.44;;;13.23;48.20
67377;BME280;54261;46.086;6.588;2023-05-09T20:42:08;92373.19;;;12.86;51.27
67377;BME280;54261;46.086;6.588;2023-05-09T20:47:10;92387.06;;;8.03;67.77
67377;BME280;54261;46.086;6.588;2023-05-09T20:52:12;92393.38;;;8.53;64.59
67377;BME280;54261;46.086;6.588;2023-05-09T20:57:13;92381.03;;;10.17;60.67
67377;BME280;54261;46.086;6.588;2023-05-09T21:02:15;92382.63;;;10.27;58.37
67377;BME280;54261;46.086;6.588;2023-05-09T21:07:17;92386.16;;;10.66;58.84
67377;BME280;54261;46.086;6.588;2023-05-09T21:12:20;92381.28;;;11.97;54.10
67377;BME280;54261;46.086;6.588;2023-05-09T21:17:22;92395.72;;;12.48;53.99
67377;BME280;54261;46.086;6.588;2023-05-09T21:22:23;92396.38;;;12.78;51.60
67377;BME280;54261;46.086;6.588;2023-05-09T21:27:25;92398.13;;;11.55;51.94
67377;BME280;54261;46.086;6.588;2023-05-09T21:32:27;92407.63;;;10.75;55.58
67377;BME280;54261;46.086;6.588;2023-05-09T21:37:29;92395.19;;;10.44;57.03
67377;BME280;54261;46.086;6.588;2023-05-09T21:42:31;92416.03;;;10.47;58.56
67377;BME280;54261;46.086;6.588;2023-05-09T21:47:33;92392.38;;;9.79;57.50
67377;BME280;54261;46.086;6.588;2023-05-09T21:52:35;92413.50;;;11.76;54.67
67377;BME280;54261;46.086;6.588;2023-05-09T21:57:37;92415.69;;;9.96;56.89
67377;BME280;54261;46.086;6.588;2023-05-09T22:02:39;92410.16;;;11.19;54.99
67377;BME280;54261;46.086;6.588;2023-05-09T22:07:43;92424.81;;;11.30;53.47
67377;BME280;54261;46.086;6.588;2023-05-09T22:12:45;92414.09;;;11.52;53.05
67377;BME280;54261;46.086;6.588;2023-05-09T22:17:47;92406.66;;;9.39;57.98
67377;BME280;54261;46.086;6.588;2023-05-09T22:22:49;92387.31;;;9.68;57.01
67377;BME280;54261;46.086;6.588;2023-05-09T22:27:50;92411.47;;;11.43;53.12
67377;BME280;54261;46.086;6.588;2023-05-09T22:32:52;92415.25;;;12.02;51.36
67377;BME280;54261;46.086;6.588;2023-05-09T22:37:54;92417.59;;;12.25;51.41
67377;BME280;54261;46.086;6.588;2023-05-09T22:42:56;92422.59;;;11.93;49.83
67377;BME280;54261;46.086;6.588;2023-05-09T22:47:58;92423.13;;;10.34;54.11
67377;BME280;54261;46.086;6.588;2023-05-09T22:53:00;92423.50;;;11.07;52.86
67377;BME280;54261;46.086;6.588;2023-05-09T22:58:02;92423.00;;;11.04;52.46
67377;BME280;54261;46.086;6.588;2023-05-09T23:03:04;92431.28;;;11.29;51.53
67377;BME280;54261;46.086;6.588;2023-05-09T23:08:06;92423.88;;;11.56;51.26
67377;BME280;54261;46.086;6.588;2023-05-09T23:13:08;92423.63;;;12.22;51.82
67377;BME280;54261;46.086;6.588;2023-05-09T23:18:09;92405.06;;;12.96;48.78
67377;BME280;54261;46.086;6.588;2023-05-09T23:23:11;92419.13;;;13.27;48.02
67377;BME280;54261;46.086;6.588;2023-05-09T23:28:13;92434.88;;;13.50;47.89
67377;BME280;54261;46.086;6.588;2023-05-09T23:33:15;92420.59;;;13.24;46.72
67377;BME280;54261;46.086;6.588;2023-05-09T23:38:17;92425.13;;;10.72;52.41
67377;BME280;54261;46.086;6.588;2023-05-09T23:43:19;92441.91;;;9.32;57.70
67377;BME280;54261;46.086;6.588;2023-05-09T23:48:22;92437.78;;;7.94;63.24
67377;BME280;54261;46.086;6.588;2023-05-09T23:53:23;92424.91;;;10.03;59.71
67377;BME280;54261;46.086;6.588;2023-05-09T23:58:26;92402.03;;;10.32;58.50
